sensor_id;sensor_type;location;lat;lon;timestamp;P1;durP1;ratioP1;P2;durP2;ratioP2
5060;SDS011;2549;52.128;21.068;2023-02-01T00:01:05;4.03;;;2.72;;
5060;SDS011;2549;52.128;21.068;2023-02-01T00:03:33;2.85;;;2.58;;
5060;SDS011;2549;52.128;21.068;2023-02-01T00:06:00;2.40;;;2.17;;
5060;SDS011;2549;52.128;21.068;2023-02-01T00:08:27;3.13;;;2.92;;
5060;SDS011;2549;52.128;21.068;2023-02-01T00:11:00;3.20;;;3.00;;
5060;SDS011;2549;52.128;21.068;2023-02-01T00:13:32;8.00;;;3.10;;
5060;SDS011;2549;52.128;21.068;2023-02-01T00:16:07;4.10;;;3.30;;
5060;SDS011;2549;52.128;21.068;2023-02-01T00:18:36;3.03;;;2.83;;
5060;SDS011;2549;52.128;21.068;2023-02-01T00:21:04;2.88;;;2.22;;
5060;SDS011;2549;52.128;21.068;2023-02-01T00:23:34;6.35;;;3.13;;
5060;SDS011;2549;52.128;21.068;2023-02-01T00:26:05;2.70;;;2.35;;
5060;SDS011;2549;52.128;21.068;2023-02-01T00:28:33;2.72;;;2.30;;
5060;SDS011;2549;52.128;21.068;2023-02-01T00:31:01;2.45;;;2.25;;
5060;SDS011;2549;52.128;21.068;2023-02-01T00:33:30;2.80;;;2.55;;
5060;SDS011;2549;52.128;21.068;2023-02-01T00:35:59;3.17;;;2.60;;
5060;SDS011;2549;52.128;21.068;2023-02-01T00:38:28;2.13;;;1.75;;
5060;SDS011;2549;52.128;21.068;2023-02-01T00:41:02;2.58;;;1.85;;
5060;SDS011;2549;52.128;21.068;2023-02-01T00:43:35;2.28;;;2.08;;
5060;SDS011;2549;52.128;21.068;2023-02-01T00:46:02;1.80;;;1.70;;
5060;SDS011;2549;52.128;21.068;2023-02-01T00:48:29;2.00;;;1.80;;
5060;SDS011;2549;52.128;21.068;2023-02-01T00:51:00;1.85;;;1.75;;
5060;SDS011;2549;52.128;21.068;2023-02-01T00:53:27;1.40;;;1.40;;
5060;SDS011;2549;52.128;21.068;2023-02-01T00:55:54;3.67;;;2.20;;
5060;SDS011;2549;52.128;21.068;2023-02-01T00:58:22;3.00;;;2.63;;
5060;SDS011;2549;52.128;21.068;2023-02-01T01:01:15;2.75;;;2.10;;
5060;SDS011;2549;52.128;21.068;2023-02-01T01:03:42;3.28;;;1.52;;
5060;SDS011;2549;52.128;21.068;2023-02-01T01:06:12;3.30;;;1.65;;
5060;SDS011;2549;52.128;21.068;2023-02-01T01:08:41;2.15;;;1.30;;
5060;SDS011;2549;52.128;21.068;2023-02-01T01:11:09;3.75;;;1.30;;
5060;SDS011;2549;52.128;21.068;2023-02-01T01:13:38;2.58;;;1.90;;
5060;SDS011;2549;52.128;21.068;2023-02-01T01:16:06;3.90;;;1.30;;
5060;SDS011;2549;52.128;21.068;2023-02-01T01:18:34;4.07;;;1.40;;
5060;SDS011;2549;52.128;21.068;2023-02-01T01:21:01;4.30;;;1.70;;
5060;SDS011;2549;52.128;21.068;2023-02-01T01:23:29;3.50;;;1.00;;
5060;SDS011;2549;52.128;21.068;2023-02-01T01:25:56;3.78;;;1.33;;
5060;SDS011;2549;52.128;21.068;2023-02-01T01:28:24;2.42;;;1.27;;
5060;SDS011;2549;52.128;21.068;2023-02-01T01:30:50;1.38;;;0.80;;
5060;SDS011;2549;52.128;21.068;2023-02-01T01:33:17;2.58;;;1.35;;
5060;SDS011;2549;52.128;21.068;2023-02-01T01:35:44;1.00;;;1.00;;
5060;SDS011;2549;52.128;21.068;2023-02-01T01:38:11;4.63;;;1.00;;
5060;SDS011;2549;52.128;21.068;2023-02-01T01:40:38;3.75;;;1.30;;
5060;SDS011;2549;52.128;21.068;2023-02-01T01:43:12;4.55;;;1.00;;
5060;SDS011;2549;52.128;21.068;2023-02-01T01:45:41;3.08;;;1.20;;
5060;SDS011;2549;52.128;21.068;2023-02-01T01:48:13;1.90;;;0.88;;
5060;SDS011;2549;52.128;21.068;2023-02-01T01:50:49;4.28;;;0.98;;
5060;SDS011;2549;52.128;21.068;2023-02-01T01:53:23;3.25;;;1.33;;
5060;SDS011;2549;52.128;21.068;2023-02-01T01:55:58;1.10;;;1.00;;
5060;SDS011;2549;52.128;21.068;2023-02-01T01:58:26;1.65;;;1.10;;
5060;SDS011;2549;52.128;21.068;2023-02-01T02:00:55;3.63;;;1.17;;
5060;SDS011;2549;52.128;21.068;2023-02-01T02:03:23;5.65;;;1.35;;
5060;SDS011;2549;52.128;21.068;2023-02-01T02:05:55;8.57;;;1.63;;
5060;SDS011;2549;52.128;21.068;2023-02-01T02:08:25;2.03;;;1.00;;
5060;SDS011;2549;52.128;21.068;2023-02-01T02:10:53;1.60;;;1.10;;
5060;SDS011;2549;52.128;21.068;2023-02-01T02:13:36;1.85;;;1.15;;
5060;SDS011;2549;52.128;21.068;2023-02-01T02:22:03;7.15;;;1.52;;
5060;SDS011;2549;52.128;21.068;2023-02-01T02:36:28;3.42;;;1.25;;
5060;SDS011;2549;52.128;21.068;2023-02-01T02:39:04;5.25;;;1.65;;
5060;SDS011;2549;52.128;21.068;2023-02-01T02:48:22;6.05;;;2.22;;
5060;SDS011;2549;52.128;21.068;2023-02-01T02:54:11;6.88;;;1.80;;
5060;SDS011;2549;52.128;21.068;2023-02-01T02:57:03;9.30;;;2.10;;
5060;SDS011;2549;52.128;21.068;2023-02-01T02:59:53;7.88;;;1.98;;
5060;SDS011;2549;52.128;21.068;2023-02-01T03:02:40;13.82;;;2.10;;
5060;SDS011;2549;52.128;21.068;2023-02-01T03:05:31;4.75;;;1.55;;
5060;SDS011;2549;52.128;21.068;2023-02-01T03:08:19;4.93;;;1.55;;
5060;SDS011;2549;52.128;21.068;2023-02-01T03:13:22;9.70;;;1.75;;
5060;SDS011;2549;52.128;21.068;2023-02-01T03:21:41;5.97;;;1.30;;
5060;SDS011;2549;52.128;21.068;2023-02-01T03:24:38;7.07;;;1.63;;
5060;SDS011;2549;52.128;21.068;2023-02-01T03:27:09;9.60;;;1.45;;
5060;SDS011;2549;52.128;21.068;2023-02-01T03:29:38;9.82;;;1.85;;
5060;SDS011;2549;52.128;21.068;2023-02-01T03:32:10;6.68;;;1.30;;
5060;SDS011;2549;52.128;21.068;2023-02-01T03:34:37;9.25;;;1.38;;
5060;SDS011;2549;52.128;21.068;2023-02-01T03:37:06;6.97;;;1.63;;
5060;SDS011;2549;52.128;21.068;2023-02-01T03:39:43;5.60;;;1.85;;
5060;SDS011;2549;52.128;21.068;2023-02-01T03:42:24;6.90;;;1.70;;
5060;SDS011;2549;52.128;21.068;2023-02-01T03:47:33;8.35;;;1.23;;
5060;SDS011;2549;52.128;21.068;2023-02-01T03:50:07;7.68;;;1.67;;
5060;SDS011;2549;52.128;21.068;2023-02-01T03:52:44;6.43;;;1.58;;
5060;SDS011;2549;52.128;21.068;2023-02-01T03:55:14;6.53;;;1.67;;
5060;SDS011;2549;52.128;21.068;2023-02-01T03:57:44;9.52;;;1.65;;
5060;SDS011;2549;52.128;21.068;2023-02-01T04:00:20;8.23;;;1.60;;
5060;SDS011;2549;52.128;21.068;2023-02-01T04:02:50;5.80;;;1.50;;
5060;SDS011;2549;52.128;21.068;2023-02-01T04:05:18;7.20;;;1.50;;
5060;SDS011;2549;52.128;21.068;2023-02-01T04:07:45;15.85;;;3.20;;
5060;SDS011;2549;52.128;21.068;2023-02-01T04:10:12;2.33;;;1.73;;
5060;SDS011;2549;52.128;21.068;2023-02-01T04:12:39;7.47;;;1.40;;
5060;SDS011;2549;52.128;21.068;2023-02-01T04:15:06;4.15;;;1.50;;
5060;SDS011;2549;52.128;21.068;2023-02-01T04:17:34;3.92;;;1.48;;
5060;SDS011;2549;52.128;21.068;2023-02-01T04:20:00;11.18;;;2.55;;
5060;SDS011;2549;52.128;21.068;2023-02-01T04:22:27;7.18;;;1.83;;
5060;SDS011;2549;52.128;21.068;2023-02-01T04:24:54;11.95;;;1.60;;
5060;SDS011;2549;52.128;21.068;2023-02-01T04:27:21;9.00;;;1.52;;
5060;SDS011;2549;52.128;21.068;2023-02-01T04:29:48;5.72;;;1.35;;
5060;SDS011;2549;52.128;21.068;2023-02-01T04:32:18;6.22;;;1.67;;
5060;SDS011;2549;52.128;21.068;2023-02-01T04:34:46;6.40;;;2.20;;
5060;SDS011;2549;52.128;21.068;2023-02-01T04:37:12;4.15;;;1.65;;
5060;SDS011;2549;52.128;21.068;2023-02-01T04:39:39;6.60;;;1.83;;
5060;SDS011;2549;52.128;21.068;2023-02-01T04:42:06;13.07;;;2.25;;
5060;SDS011;2549;52.128;21.068;2023-02-01T04:44:33;7.28;;;1.45;;
5060;SDS011;2549;52.128;21.068;2023-02-01T04:47:00;12.70;;;2.00;;
5060;SDS011;2549;52.128;21.068;2023-02-01T04:49:26;6.97;;;2.05;;
5060;SDS011;2549;52.128;21.068;2023-02-01T04:51:53;8.48;;;1.50;;
5060;SDS011;2549;52.128;21.068;2023-02-01T04:54:20;10.52;;;2.05;;
5060;SDS011;2549;52.128;21.068;2023-02-01T04:56:47;4.45;;;2.10;;
5060;SDS011;2549;52.128;21.068;2023-02-01T04:59:14;11.00;;;2.00;;
5060;SDS011;2549;52.128;21.068;2023-02-01T05:01:40;5.18;;;1.80;;
5060;SDS011;2549;52.128;21.068;2023-02-01T05:04:07;11.88;;;1.40;;
5060;SDS011;2549;52.128;21.068;2023-02-01T05:06:34;6.88;;;1.67;;
5060;SDS011;2549;52.128;21.068;2023-02-01T05:09:01;4.85;;;1.50;;
5060;SDS011;2549;52.128;21.068;2023-02-01T05:11:28;7.10;;;1.83;;
5060;SDS011;2549;52.128;21.068;2023-02-01T05:14:13;6.22;;;1.98;;
5060;SDS011;2549;52.128;21.068;2023-02-01T05:16:40;3.47;;;1.50;;
5060;SDS011;2549;52.128;21.068;2023-02-01T05:19:07;11.27;;;1.90;;
5060;SDS011;2549;52.128;21.068;2023-02-01T05:21:33;12.43;;;1.90;;
5060;SDS011;2549;52.128;21.068;2023-02-01T05:24:00;3.90;;;1.65;;
5060;SDS011;2549;52.128;21.068;2023-02-01T05:26:36;13.13;;;1.85;;
5060;SDS011;2549;52.128;21.068;2023-02-01T05:29:04;8.95;;;1.80;;
5060;SDS011;2549;52.128;21.068;2023-02-01T05:31:31;5.45;;;1.40;;
5060;SDS011;2549;52.128;21.068;2023-02-01T05:33:58;6.38;;;1.75;;
5060;SDS011;2549;52.128;21.068;2023-02-01T05:36:25;8.65;;;1.70;;
5060;SDS011;2549;52.128;21.068;2023-02-01T05:38:53;9.40;;;1.83;;
5060;SDS011;2549;52.128;21.068;2023-02-01T05:41:20;9.65;;;1.73;;
5060;SDS011;2549;52.128;21.068;2023-02-01T05:43:46;4.65;;;1.30;;
5060;SDS011;2549;52.128;21.068;2023-02-01T05:46:13;6.00;;;2.22;;
5060;SDS011;2549;52.128;21.068;2023-02-01T05:48:40;3.47;;;1.65;;
5060;SDS011;2549;52.128;21.068;2023-02-01T05:51:08;1.55;;;1.05;;
5060;SDS011;2549;52.128;21.068;2023-02-01T05:53:35;8.32;;;1.83;;
5060;SDS011;2549;52.128;21.068;2023-02-01T05:56:02;7.45;;;2.00;;
5060;SDS011;2549;52.128;21.068;2023-02-01T05:58:29;17.92;;;2.15;;
5060;SDS011;2549;52.128;21.068;2023-02-01T06:01:00;5.95;;;1.83;;
5060;SDS011;2549;52.128;21.068;2023-02-01T06:03:28;10.65;;;1.88;;
5060;SDS011;2549;52.128;21.068;2023-02-01T06:05:55;2.85;;;1.50;;
5060;SDS011;2549;52.128;21.068;2023-02-01T06:08:22;11.95;;;1.92;;
5060;SDS011;2549;52.128;21.068;2023-02-01T06:10:57;10.88;;;2.45;;
5060;SDS011;2549;52.128;21.068;2023-02-01T06:13:27;7.80;;;2.13;;
5060;SDS011;2549;52.128;21.068;2023-02-01T06:15:54;7.43;;;1.88;;
5060;SDS011;2549;52.128;21.068;2023-02-01T06:18:23;7.47;;;1.63;;
5060;SDS011;2549;52.128;21.068;2023-02-01T06:20:52;12.98;;;2.00;;
5060;SDS011;2549;52.128;21.068;2023-02-01T06:23:23;6.20;;;1.98;;
5060;SDS011;2549;52.128;21.068;2023-02-01T06:25:51;4.05;;;1.55;;
5060;SDS011;2549;52.128;21.068;2023-02-01T06:28:19;9.50;;;2.17;;
5060;SDS011;2549;52.128;21.068;2023-02-01T06:30:46;4.63;;;2.17;;
5060;SDS011;2549;52.128;21.068;2023-02-01T06:33:13;1.50;;;1.23;;
5060;SDS011;2549;52.128;21.068;2023-02-01T06:35:43;4.30;;;1.50;;
5060;SDS011;2549;52.128;21.068;2023-02-01T06:38:10;6.05;;;1.70;;
5060;SDS011;2549;52.128;21.068;2023-02-01T06:40:38;11.30;;;2.30;;
5060;SDS011;2549;52.128;21.068;2023-02-01T06:43:05;13.88;;;2.05;;
5060;SDS011;2549;52.128;21.068;2023-02-01T06:45:32;7.13;;;1.70;;
5060;SDS011;2549;52.128;21.068;2023-02-01T06:47:59;9.43;;;1.70;;
5060;SDS011;2549;52.128;21.068;2023-02-01T06:50:29;7.93;;;1.52;;
5060;SDS011;2549;52.128;21.068;2023-02-01T06:52:55;9.40;;;1.40;;
5060;SDS011;2549;52.128;21.068;2023-02-01T06:55:22;7.30;;;1.90;;
5060;SDS011;2549;52.128;21.068;2023-02-01T06:57:52;17.98;;;2.42;;
5060;SDS011;2549;52.128;21.068;2023-02-01T07:00:21;5.72;;;1.35;;
5060;SDS011;2549;52.128;21.068;2023-02-01T07:02:49;15.00;;;2.75;;
5060;SDS011;2549;52.128;21.068;2023-02-01T07:05:16;5.57;;;2.05;;
5060;SDS011;2549;52.128;21.068;2023-02-01T07:07:43;8.15;;;1.70;;
5060;SDS011;2549;52.128;21.068;2023-02-01T07:10:10;6.03;;;1.63;;
5060;SDS011;2549;52.128;21.068;2023-02-01T07:12:38;10.25;;;1.85;;
5060;SDS011;2549;52.128;21.068;2023-02-01T07:15:05;5.13;;;1.60;;
5060;SDS011;2549;52.128;21.068;2023-02-01T07:17:33;6.63;;;1.60;;
5060;SDS011;2549;52.128;21.068;2023-02-01T07:19:59;12.98;;;1.30;;
5060;SDS011;2549;52.128;21.068;2023-02-01T07:22:27;4.05;;;1.50;;
5060;SDS011;2549;52.128;21.068;2023-02-01T07:24:55;6.40;;;2.00;;
5060;SDS011;2549;52.128;21.068;2023-02-01T07:27:22;15.15;;;2.17;;
5060;SDS011;2549;52.128;21.068;2023-02-01T07:29:51;5.35;;;1.98;;
5060;SDS011;2549;52.128;21.068;2023-02-01T07:32:18;4.03;;;1.75;;
5060;SDS011;2549;52.128;21.068;2023-02-01T07:34:45;9.32;;;1.58;;
5060;SDS011;2549;52.128;21.068;2023-02-01T07:37:12;7.32;;;2.67;;
5060;SDS011;2549;52.128;21.068;2023-02-01T07:39:39;8.55;;;2.00;;
5060;SDS011;2549;52.128;21.068;2023-02-01T07:42:05;11.07;;;2.20;;
5060;SDS011;2549;52.128;21.068;2023-02-01T07:44:32;9.35;;;1.85;;
5060;SDS011;2549;52.128;21.068;2023-02-01T07:46:59;7.35;;;1.45;;
5060;SDS011;2549;52.128;21.068;2023-02-01T07:49:26;8.25;;;1.80;;
5060;SDS011;2549;52.128;21.068;2023-02-01T07:51:53;7.38;;;2.05;;
5060;SDS011;2549;52.128;21.068;2023-02-01T07:54:20;10.18;;;2.22;;
5060;SDS011;2549;52.128;21.068;2023-02-01T07:56:46;9.63;;;2.42;;
5060;SDS011;2549;52.128;21.068;2023-02-01T07:59:13;6.88;;;1.90;;
5060;SDS011;2549;52.128;21.068;2023-02-01T08:01:41;6.93;;;1.27;;
5060;SDS011;2549;52.128;21.068;2023-02-01T08:04:09;5.65;;;1.83;;
5060;SDS011;2549;52.128;21.068;2023-02-01T08:06:38;13.77;;;1.90;;
5060;SDS011;2549;52.128;21.068;2023-02-01T08:09:06;9.32;;;1.85;;
5060;SDS011;2549;52.128;21.068;2023-02-01T08:11:37;6.30;;;1.98;;
5060;SDS011;2549;52.128;21.068;2023-02-01T08:14:04;6.03;;;1.95;;
5060;SDS011;2549;52.128;21.068;2023-02-01T08:16:33;9.60;;;2.10;;
5060;SDS011;2549;52.128;21.068;2023-02-01T08:19:02;10.52;;;1.83;;
5060;SDS011;2549;52.128;21.068;2023-02-01T08:21:29;8.90;;;1.85;;
5060;SDS011;2549;52.128;21.068;2023-02-01T08:24:05;13.52;;;2.35;;
5060;SDS011;2549;52.128;21.068;2023-02-01T08:26:33;4.38;;;1.63;;
5060;SDS011;2549;52.128;21.068;2023-02-01T08:29:03;8.18;;;2.15;;
5060;SDS011;2549;52.128;21.068;2023-02-01T08:31:31;8.10;;;2.33;;
5060;SDS011;2549;52.128;21.068;2023-02-01T08:34:00;10.65;;;2.15;;
5060;SDS011;2549;52.128;21.068;2023-02-01T08:36:30;12.13;;;1.90;;
5060;SDS011;2549;52.128;21.068;2023-02-01T08:38:57;5.80;;;1.63;;
5060;SDS011;2549;52.128;21.068;2023-02-01T08:41:26;10.20;;;2.00;;
5060;SDS011;2549;52.128;21.068;2023-02-01T08:43:55;14.13;;;2.30;;
5060;SDS011;2549;52.128;21.068;2023-02-01T08:46:23;10.10;;;1.60;;
5060;SDS011;2549;52.128;21.068;2023-02-01T08:48:50;10.00;;;2.65;;
5060;SDS011;2549;52.128;21.068;2023-02-01T08:51:18;8.18;;;1.75;;
5060;SDS011;2549;52.128;21.068;2023-02-01T08:53:46;7.72;;;2.05;;
5060;SDS011;2549;52.128;21.068;2023-02-01T08:56:14;6.20;;;1.95;;
5060;SDS011;2549;52.128;21.068;2023-02-01T08:58:42;4.30;;;1.42;;
5060;SDS011;2549;52.128;21.068;2023-02-01T09:01:10;6.75;;;1.73;;
5060;SDS011;2549;52.128;21.068;2023-02-01T09:03:40;13.02;;;1.98;;
5060;SDS011;2549;52.128;21.068;2023-02-01T09:06:08;12.45;;;2.58;;
5060;SDS011;2549;52.128;21.068;2023-02-01T09:08:38;4.53;;;1.98;;
5060;SDS011;2549;52.128;21.068;2023-02-01T09:11:07;7.43;;;1.83;;
5060;SDS011;2549;52.128;21.068;2023-02-01T09:13:38;10.30;;;1.80;;
5060;SDS011;2549;52.128;21.068;2023-02-01T09:16:05;12.68;;;1.92;;
5060;SDS011;2549;52.128;21.068;2023-02-01T09:18:32;14.95;;;2.10;;
5060;SDS011;2549;52.128;21.068;2023-02-01T09:20:58;3.75;;;1.75;;
5060;SDS011;2549;52.128;21.068;2023-02-01T09:23:29;5.13;;;1.85;;
5060;SDS011;2549;52.128;21.068;2023-02-01T09:26:00;13.35;;;1.75;;
5060;SDS011;2549;52.128;21.068;2023-02-01T09:28:27;6.75;;;1.90;;
5060;SDS011;2549;52.128;21.068;2023-02-01T09:30:57;5.43;;;2.00;;
5060;SDS011;2549;52.128;21.068;2023-02-01T09:33:26;10.68;;;2.13;;
5060;SDS011;2549;52.128;21.068;2023-02-01T09:35:57;6.15;;;1.70;;
5060;SDS011;2549;52.128;21.068;2023-02-01T09:38:26;11.60;;;1.70;;
5060;SDS011;2549;52.128;21.068;2023-02-01T09:40:54;17.02;;;2.28;;
5060;SDS011;2549;52.128;21.068;2023-02-01T09:46:26;5.00;;;1.63;;
5060;SDS011;2549;52.128;21.068;2023-02-01T09:48:56;6.35;;;2.42;;
5060;SDS011;2549;52.128;21.068;2023-02-01T09:51:32;12.80;;;1.70;;
5060;SDS011;2549;52.128;21.068;2023-02-01T09:54:10;6.00;;;2.15;;
5060;SDS011;2549;52.128;21.068;2023-02-01T09:56:53;9.45;;;1.80;;
5060;SDS011;2549;52.128;21.068;2023-02-01T10:01:58;14.15;;;2.30;;
5060;SDS011;2549;52.128;21.068;2023-02-01T10:04:27;10.98;;;1.80;;
5060;SDS011;2549;52.128;21.068;2023-02-01T10:15:13;30.83;;;4.20;;
5060;SDS011;2549;52.128;21.068;2023-02-01T10:18:07;24.40;;;3.33;;
5060;SDS011;2549;52.128;21.068;2023-02-01T10:26:37;10.75;;;2.40;;
5060;SDS011;2549;52.128;21.068;2023-02-01T10:29:15;7.18;;;1.80;;
5060;SDS011;2549;52.128;21.068;2023-02-01T10:31:45;7.45;;;2.05;;
5060;SDS011;2549;52.128;21.068;2023-02-01T10:34:18;6.90;;;1.85;;
5060;SDS011;2549;52.128;21.068;2023-02-01T10:37:02;3.13;;;1.60;;
5060;SDS011;2549;52.128;21.068;2023-02-01T10:39:40;8.07;;;2.08;;
5060;SDS011;2549;52.128;21.068;2023-02-01T10:42:07;9.60;;;1.83;;
5060;SDS011;2549;52.128;21.068;2023-02-01T10:44:36;8.70;;;1.80;;
5060;SDS011;2549;52.128;21.068;2023-02-01T10:47:10;10.20;;;2.20;;
5060;SDS011;2549;52.128;21.068;2023-02-01T10:49:54;8.90;;;2.10;;
5060;SDS011;2549;52.128;21.068;2023-02-01T10:52:40;8.98;;;1.67;;
5060;SDS011;2549;52.128;21.068;2023-02-01T10:55:25;9.50;;;2.50;;
5060;SDS011;2549;52.128;21.068;2023-02-01T10:57:56;10.68;;;2.78;;
5060;SDS011;2549;52.128;21.068;2023-02-01T11:00:25;7.38;;;2.17;;
5060;SDS011;2549;52.128;21.068;2023-02-01T11:02:53;15.63;;;2.72;;
5060;SDS011;2549;52.128;21.068;2023-02-01T11:05:20;6.53;;;2.28;;
5060;SDS011;2549;52.128;21.068;2023-02-01T11:07:49;8.45;;;1.65;;
5060;SDS011;2549;52.128;21.068;2023-02-01T11:10:35;10.85;;;2.38;;
5060;SDS011;2549;52.128;21.068;2023-02-01T11:13:04;5.95;;;1.85;;
5060;SDS011;2549;52.128;21.068;2023-02-01T11:15:31;6.80;;;2.67;;
5060;SDS011;2549;52.128;21.068;2023-02-01T11:18:07;7.32;;;2.10;;
5060;SDS011;2549;52.128;21.068;2023-02-01T11:20:50;13.45;;;2.30;;
5060;SDS011;2549;52.128;21.068;2023-02-01T11:23:19;6.28;;;2.30;;
5060;SDS011;2549;52.128;21.068;2023-02-01T11:25:58;12.15;;;2.42;;
5060;SDS011;2549;52.128;21.068;2023-02-01T11:28:27;5.53;;;2.25;;
5060;SDS011;2549;52.128;21.068;2023-02-01T11:31:04;11.95;;;1.90;;
5060;SDS011;2549;52.128;21.068;2023-02-01T11:33:37;12.77;;;2.88;;
5060;SDS011;2549;52.128;21.068;2023-02-01T11:36:07;5.22;;;1.85;;
5060;SDS011;2549;52.128;21.068;2023-02-01T11:38:38;10.85;;;2.50;;
5060;SDS011;2549;52.128;21.068;2023-02-01T11:41:12;5.75;;;2.15;;
5060;SDS011;2549;52.128;21.068;2023-02-01T11:43:50;4.28;;;1.65;;
5060;SDS011;2549;52.128;21.068;2023-02-01T11:46:32;11.85;;;3.17;;
5060;SDS011;2549;52.128;21.068;2023-02-01T11:54:41;10.00;;;2.10;;
5060;SDS011;2549;52.128;21.068;2023-02-01T12:02:51;7.88;;;2.20;;
5060;SDS011;2549;52.128;21.068;2023-02-01T12:10:47;11.82;;;2.35;;
5060;SDS011;2549;52.128;21.068;2023-02-01T12:27:27;7.00;;;2.80;;
5060;SDS011;2549;52.128;21.068;2023-02-01T12:33:25;9.07;;;2.85;;
5060;SDS011;2549;52.128;21.068;2023-02-01T12:36:56;14.48;;;2.58;;
5060;SDS011;2549;52.128;21.068;2023-02-01T12:39:35;8.75;;;2.42;;
5060;SDS011;2549;52.128;21.068;2023-02-01T12:42:11;7.15;;;2.92;;
5060;SDS011;2549;52.128;21.068;2023-02-01T12:44:50;16.70;;;2.58;;
5060;SDS011;2549;52.128;21.068;2023-02-01T12:50:31;10.75;;;3.97;;
5060;SDS011;2549;52.128;21.068;2023-02-01T12:53:09;14.60;;;3.50;;
5060;SDS011;2549;52.128;21.068;2023-02-01T12:55:53;10.82;;;2.83;;
5060;SDS011;2549;52.128;21.068;2023-02-01T12:58:27;11.85;;;2.92;;
5060;SDS011;2549;52.128;21.068;2023-02-01T13:01:06;10.75;;;3.22;;
5060;SDS011;2549;52.128;21.068;2023-02-01T13:03:50;12.60;;;2.53;;
5060;SDS011;2549;52.128;21.068;2023-02-01T13:06:43;15.27;;;3.80;;
5060;SDS011;2549;52.128;21.068;2023-02-01T13:09:24;13.15;;;3.03;;
5060;SDS011;2549;52.128;21.068;2023-02-01T13:12:00;10.77;;;3.75;;
5060;SDS011;2549;52.128;21.068;2023-02-01T13:14:53;12.32;;;3.55;;
5060;SDS011;2549;52.128;21.068;2023-02-01T13:17:28;13.68;;;2.85;;
5060;SDS011;2549;52.128;21.068;2023-02-01T13:23:14;16.85;;;3.00;;
5060;SDS011;2549;52.128;21.068;2023-02-01T13:25:49;12.07;;;2.90;;
5060;SDS011;2549;52.128;21.068;2023-02-01T13:41:30;14.48;;;3.22;;
5060;SDS011;2549;52.128;21.068;2023-02-01T13:44:10;10.13;;;3.13;;
5060;SDS011;2549;52.128;21.068;2023-02-01T13:46:44;12.45;;;2.58;;
5060;SDS011;2549;52.128;21.068;2023-02-01T13:49:24;5.57;;;1.90;;
5060;SDS011;2549;52.128;21.068;2023-02-01T13:51:55;9.52;;;2.35;;
5060;SDS011;2549;52.128;21.068;2023-02-01T13:56:55;9.30;;;2.42;;
5060;SDS011;2549;52.128;21.068;2023-02-01T14:05:03;12.05;;;2.92;;
5060;SDS011;2549;52.128;21.068;2023-02-01T14:07:34;7.35;;;2.17;;
5060;SDS011;2549;52.128;21.068;2023-02-01T14:26:20;7.53;;;2.20;;
5060;SDS011;2549;52.128;21.068;2023-02-01T14:47:46;11.55;;;3.20;;
5060;SDS011;2549;52.128;21.068;2023-02-01T14:58:18;5.70;;;3.13;;
5060;SDS011;2549;52.128;21.068;2023-02-01T15:00:59;6.63;;;2.15;;
5060;SDS011;2549;52.128;21.068;2023-02-01T15:09:10;6.88;;;2.53;;
5060;SDS011;2549;52.128;21.068;2023-02-01T15:14:36;2.55;;;1.80;;
5060;SDS011;2549;52.128;21.068;2023-02-01T15:17:26;3.67;;;1.85;;
5060;SDS011;2549;52.128;21.068;2023-02-01T15:20:11;4.60;;;2.65;;
5060;SDS011;2549;52.128;21.068;2023-02-01T15:22:58;8.40;;;2.33;;
5060;SDS011;2549;52.128;21.068;2023-02-01T15:25:27;9.10;;;2.70;;
5060;SDS011;2549;52.128;21.068;2023-02-01T15:28:00;8.98;;;2.70;;
5060;SDS011;2549;52.128;21.068;2023-02-01T15:30:28;6.63;;;3.65;;
5060;SDS011;2549;52.128;21.068;2023-02-01T15:35:42;4.43;;;2.00;;
5060;SDS011;2549;52.128;21.068;2023-02-01T15:43:32;4.82;;;2.53;;
5060;SDS011;2549;52.128;21.068;2023-02-01T15:46:16;5.45;;;1.80;;
5060;SDS011;2549;52.128;21.068;2023-02-01T15:48:49;5.15;;;2.33;;
5060;SDS011;2549;52.128;21.068;2023-02-01T15:51:22;6.60;;;2.50;;
5060;SDS011;2549;52.128;21.068;2023-02-01T15:53:56;4.20;;;2.03;;
5060;SDS011;2549;52.128;21.068;2023-02-01T15:56:27;6.25;;;2.72;;
5060;SDS011;2549;52.128;21.068;2023-02-01T15:58:57;5.70;;;2.97;;
5060;SDS011;2549;52.128;21.068;2023-02-01T16:01:27;6.88;;;2.78;;
5060;SDS011;2549;52.128;21.068;2023-02-01T16:04:10;9.57;;;3.65;;
5060;SDS011;2549;52.128;21.068;2023-02-01T16:06:50;8.50;;;2.15;;
5060;SDS011;2549;52.128;21.068;2023-02-01T16:09:20;7.03;;;2.88;;
5060;SDS011;2549;52.128;21.068;2023-02-01T16:11:57;7.28;;;2.22;;
5060;SDS011;2549;52.128;21.068;2023-02-01T16:14:25;11.38;;;3.10;;
5060;SDS011;2549;52.128;21.068;2023-02-01T16:16:53;4.10;;;1.80;;
5060;SDS011;2549;52.128;21.068;2023-02-01T16:19:22;8.88;;;2.53;;
5060;SDS011;2549;52.128;21.068;2023-02-01T16:21:54;3.75;;;1.90;;
5060;SDS011;2549;52.128;21.068;2023-02-01T16:24:21;4.88;;;2.30;;
5060;SDS011;2549;52.128;21.068;2023-02-01T16:26:51;6.57;;;2.45;;
5060;SDS011;2549;52.128;21.068;2023-02-01T16:29:18;2.63;;;2.42;;
5060;SDS011;2549;52.128;21.068;2023-02-01T16:31:45;3.38;;;2.40;;
5060;SDS011;2549;52.128;21.068;2023-02-01T16:34:15;4.90;;;2.65;;
5060;SDS011;2549;52.128;21.068;2023-02-01T16:36:48;4.45;;;2.45;;
5060;SDS011;2549;52.128;21.068;2023-02-01T16:39:23;5.15;;;2.47;;
5060;SDS011;2549;52.128;21.068;2023-02-01T16:41:50;10.32;;;2.80;;
5060;SDS011;2549;52.128;21.068;2023-02-01T16:44:17;5.20;;;2.45;;
5060;SDS011;2549;52.128;21.068;2023-02-01T16:46:44;5.38;;;2.13;;
5060;SDS011;2549;52.128;21.068;2023-02-01T16:49:21;2.72;;;2.35;;
5060;SDS011;2549;52.128;21.068;2023-02-01T16:51:49;9.10;;;2.20;;
5060;SDS011;2549;52.128;21.068;2023-02-01T16:54:21;3.35;;;2.20;;
5060;SDS011;2549;52.128;21.068;2023-02-01T16:56:47;5.15;;;2.80;;
5060;SDS011;2549;52.128;21.068;2023-02-01T16:59:15;10.60;;;2.55;;
5060;SDS011;2549;52.128;21.068;2023-02-01T17:01:42;9.13;;;2.67;;
5060;SDS011;2549;52.128;21.068;2023-02-01T17:04:09;4.35;;;2.72;;
5060;SDS011;2549;52.128;21.068;2023-02-01T17:06:36;5.95;;;2.60;;
5060;SDS011;2549;52.128;21.068;2023-02-01T17:09:05;2.35;;;1.90;;
5060;SDS011;2549;52.128;21.068;2023-02-01T17:11:32;3.75;;;2.35;;
5060;SDS011;2549;52.128;21.068;2023-02-01T17:14:01;4.40;;;2.22;;
5060;SDS011;2549;52.128;21.068;2023-02-01T17:16:40;4.20;;;3.25;;
5060;SDS011;2549;52.128;21.068;2023-02-01T17:19:12;5.80;;;2.40;;
5060;SDS011;2549;52.128;21.068;2023-02-01T17:21:43;7.43;;;2.60;;
5060;SDS011;2549;52.128;21.068;2023-02-01T17:24:13;4.68;;;2.72;;
5060;SDS011;2549;52.128;21.068;2023-02-01T17:26:41;2.42;;;2.22;;
5060;SDS011;2549;52.128;21.068;2023-02-01T17:29:09;3.20;;;2.55;;
5060;SDS011;2549;52.128;21.068;2023-02-01T17:31:37;7.57;;;3.20;;
5060;SDS011;2549;52.128;21.068;2023-02-01T17:34:08;7.05;;;3.25;;
5060;SDS011;2549;52.128;21.068;2023-02-01T17:36:41;9.05;;;3.10;;
5060;SDS011;2549;52.128;21.068;2023-02-01T17:39:08;5.65;;;2.42;;
5060;SDS011;2549;52.128;21.068;2023-02-01T17:41:36;10.85;;;2.67;;
5060;SDS011;2549;52.128;21.068;2023-02-01T17:44:03;4.20;;;2.15;;
5060;SDS011;2549;52.128;21.068;2023-02-01T17:46:30;7.10;;;2.88;;
5060;SDS011;2549;52.128;21.068;2023-02-01T17:48:57;4.85;;;2.35;;
5060;SDS011;2549;52.128;21.068;2023-02-01T17:51:25;5.13;;;2.78;;
5060;SDS011;2549;52.128;21.068;2023-02-01T17:53:53;7.47;;;2.63;;
5060;SDS011;2549;52.128;21.068;2023-02-01T17:56:22;4.82;;;2.67;;
5060;SDS011;2549;52.128;21.068;2023-02-01T17:58:50;6.55;;;2.67;;
5060;SDS011;2549;52.128;21.068;2023-02-01T18:01:26;8.10;;;3.03;;
5060;SDS011;2549;52.128;21.068;2023-02-01T18:03:53;4.90;;;3.05;;
5060;SDS011;2549;52.128;21.068;2023-02-01T18:06:23;5.50;;;2.60;;
5060;SDS011;2549;52.128;21.068;2023-02-01T18:08:52;4.53;;;2.63;;
5060;SDS011;2549;52.128;21.068;2023-02-01T18:14:02;2.75;;;2.05;;
5060;SDS011;2549;52.128;21.068;2023-02-01T18:16:30;2.63;;;2.03;;
5060;SDS011;2549;52.128;21.068;2023-02-01T18:18:58;3.50;;;2.45;;
5060;SDS011;2549;52.128;21.068;2023-02-01T18:21:37;6.68;;;1.90;;
5060;SDS011;2549;52.128;21.068;2023-02-01T18:24:16;9.93;;;3.08;;